sensor_id;sensor_type;location;lat;lon;timestamp;pressure;altitude;pressure_sealevel;temperature;humidity
43394;BME280;62479;62.642;17.954;2022-12-07T00:07:31;100943.39;;;-6.67;66.27
43394;BME280;62479;62.642;17.954;2022-12-07T00:10:07;100942.22;;;-6.56;66.33
43394;BME280;62479;62.642;17.954;2022-12-07T00:12:37;100942.50;;;-6.56;66.18
43394;BME280;62479;62.642;17.954;2022-12-07T00:15:06;100941.94;;;-6.48;66.04
43394;BME280;62479;62.642;17.954;2022-12-07T00:17:35;100940.53;;;-6.55;65.90
43394;BME280;62479;62.642;17.954;2022-12-07T00:20:06;100940.15;;;-6.53;65.98
43394;BME280;62479;62.642;17.954;2022-12-07T00:22:35;100938.06;;;-6.45;65.83
43394;BME280;62479;62.642;17.954;2022-12-07T00:25:04;100936.68;;;-6.41;65.55
43394;BME280;62479;62.642;17.954;2022-12-07T00:27:33;100936.24;;;-6.36;65.65
43394;BME280;62479;62.642;17.954;2022-12-07T00:30:03;100934.26;;;-6.31;65.37
43394;BME280;62479;62.642;17.954;2022-12-07T00:32:32;100933.85;;;-6.47;65.66
43394;BME280;62479;62.642;17.954;2022-12-07T00:35:01;100932.78;;;-6.60;65.81
43394;BME280;62479;62.642;17.954;2022-12-07T00:37:30;100931.82;;;-6.62;66.07
43394;BME280;62479;62.642;17.954;2022-12-07T00:39:59;100929.45;;;-6.73;65.41
43394;BME280;62479;62.642;17.954;2022-12-07T00:42:28;100926.67;;;-6.84;65.34
43394;BME280;62479;62.642;17.954;2022-12-07T00:44:59;100923.94;;;-7.12;65.22
43394;BME280;62479;62.642;17.954;2022-12-07T00:47:32;100921.19;;;-7.23;65.47
43394;BME280;62479;62.642;17.954;2022-12-07T00:50:01;100919.36;;;-7.57;65.79
43394;BME280;62479;62.642;17.954;2022-12-07T00:52:30;100918.26;;;-7.52;65.95
43394;BME280;62479;62.642;17.954;2022-12-07T00:55:00;100920.20;;;-7.70;66.18
43394;BME280;62479;62.642;17.954;2022-12-07T00:57:30;100929.03;;;-7.73;66.41
43394;BME280;62479;62.642;17.954;2022-12-07T00:59:59;100929.30;;;-7.82;66.47
43394;BME280;62479;62.642;17.954;2022-12-07T01:02:28;100929.66;;;-7.85;66.71
43394;BME280;62479;62.642;17.954;2022-12-07T01:04:57;100929.57;;;-7.83;66.96
43394;BME280;62479;62.642;17.954;2022-12-07T01:24:06;100943.19;;;-8.33;68.14
43394;BME280;62479;62.642;17.954;2022-12-07T01:26:35;100941.00;;;-8.42;68.32
43394;BME280;62479;62.642;17.954;2022-12-07T01:29:04;100938.80;;;-8.34;68.47
43394;BME280;62479;62.642;17.954;2022-12-07T01:31:33;100936.58;;;-8.36;68.50
43394;BME280;62479;62.642;17.954;2022-12-07T01:34:02;100937.44;;;-8.31;68.57
43394;BME280;62479;62.642;17.954;2022-12-07T01:36:34;100938.44;;;-8.32;68.59
43394;BME280;62479;62.642;17.954;2022-12-07T01:39:04;100939.02;;;-8.29;68.51
43394;BME280;62479;62.642;17.954;2022-12-07T01:41:36;100935.23;;;-8.29;68.58
43394;BME280;62479;62.642;17.954;2022-12-07T01:44:17;100931.26;;;-8.38;68.85
43394;BME280;62479;62.642;17.954;2022-12-07T01:46:47;100928.50;;;-8.24;68.84
43394;BME280;62479;62.642;17.954;2022-12-07T01:49:30;100928.20;;;-8.45;68.89
43394;BME280;62479;62.642;17.954;2022-12-07T01:52:06;100925.49;;;-8.38;68.87
43394;BME280;62479;62.642;17.954;2022-12-07T01:54:38;100918.83;;;-8.43;68.88
43394;BME280;62479;62.642;17.954;2022-12-07T01:57:08;100914.49;;;-8.31;68.90
43394;BME280;62479;62.642;17.954;2022-12-07T01:59:38;100914.98;;;-8.40;68.89
43394;BME280;62479;62.642;17.954;2022-12-07T02:02:17;100919.36;;;-8.41;68.84
43394;BME280;62479;62.642;17.954;2022-12-07T08:08:10;100867.62;;;-10.00;70.19
43394;BME280;62479;62.642;17.954;2022-12-07T08:10:38;100865.84;;;-9.94;70.08
43394;BME280;62479;62.642;17.954;2022-12-07T08:13:09;100865.52;;;-10.08;70.41
43394;BME280;62479;62.642;17.954;2022-12-07T08:15:39;100866.08;;;-10.26;71.17
43394;BME280;62479;62.642;17.954;2022-12-07T08:18:09;100865.15;;;-10.21;71.58
43394;BME280;62479;62.642;17.954;2022-12-07T08:35:15;100854.18;;;-9.71;71.59
43394;BME280;62479;62.642;17.954;2022-12-07T08:37:45;100848.57;;;-9.86;71.60
43394;BME280;62479;62.642;17.954;2022-12-07T08:40:14;100846.01;;;-9.80;71.25
43394;BME280;62479;62.642;17.954;2022-12-07T11:03:48;100819.11;;;-9.25;69.76
43394;BME280;62479;62.642;17.954;2022-12-07T11:06:30;100820.81;;;-9.24;69.79
43394;BME280;62479;62.642;17.954;2022-12-07T11:09:25;100820.95;;;-9.27;69.71
43394;BME280;62479;62.642;17.954;2022-12-07T11:12:05;100820.73;;;-9.14;70.07
43394;BME280;62479;62.642;17.954;2022-12-07T11:14:44;100815.65;;;-9.17;70.09
43394;BME280;62479;62.642;17.954;2022-12-07T11:17:20;100809.74;;;-9.14;69.93
43394;BME280;62479;62.642;17.954;2022-12-07T11:20:02;100811.19;;;-9.11;70.01
43394;BME280;62479;62.642;17.954;2022-12-07T11:22:40;100810.37;;;-9.13;70.23
43394;BME280;62479;62.642;17.954;2022-12-07T11:25:21;100812.55;;;-9.10;70.21
43394;BME280;62479;62.642;17.954;2022-12-07T11:28:03;100814.21;;;-8.93;70.68
43394;BME280;62479;62.642;17.954;2022-12-07T11:30:43;100815.02;;;-9.02;69.95
43394;BME280;62479;62.642;17.954;2022-12-07T11:33:19;100816.34;;;-9.03;69.40
43394;BME280;62479;62.642;17.954;2022-12-07T11:36:00;100814.03;;;-9.15;69.34
43394;BME280;62479;62.642;17.954;2022-12-07T11:38:41;100810.90;;;-9.25;69.35
43394;BME280;62479;62.642;17.954;2022-12-07T11:41:12;100805.48;;;-9.31;69.80
43394;BME280;62479;62.642;17.954;2022-12-07T11:43:53;100805.01;;;-9.27;69.87
43394;BME280;62479;62.642;17.954;2022-12-07T11:46:26;100803.54;;;-9.11;69.47
43394;BME280;62479;62.642;17.954;2022-12-07T11:49:02;100803.70;;;-9.26;69.63
43394;BME280;62479;62.642;17.954;2022-12-07T11:51:38;100803.12;;;-9.36;69.57
43394;BME280;62479;62.642;17.954;2022-12-07T11:54:14;100799.75;;;-9.30;69.53
43394;BME280;62479;62.642;17.954;2022-12-07T11:56:48;100799.04;;;-9.40;69.42
43394;BME280;62479;62.642;17.954;2022-12-07T11:59:24;100800.59;;;-9.39;69.72
43394;BME280;62479;62.642;17.954;2022-12-07T12:01:59;100803.17;;;-9.26;70.13
43394;BME280;62479;62.642;17.954;2022-12-07T12:04:35;100799.77;;;-8.92;70.47
43394;BME280;62479;62.642;17.954;2022-12-07T12:07:15;100795.16;;;-8.29;69.61
43394;BME280;62479;62.642;17.954;2022-12-07T12:09:49;100789.17;;;-7.79;67.95
43394;BME280;62479;62.642;17.954;2022-12-07T12:12:31;100782.05;;;-7.52;66.50
43394;BME280;62479;62.642;17.954;2022-12-07T12:15:18;100775.23;;;-7.28;66.13
43394;BME280;62479;62.642;17.954;2022-12-07T12:18:39;100769.44;;;-7.29;65.66
43394;BME280;62479;62.642;17.954;2022-12-07T12:21:16;100766.53;;;-7.84;65.22
43394;BME280;62479;62.642;17.954;2022-12-07T12:23:50;100759.50;;;-8.05;65.46
43394;BME280;62479;62.642;17.954;2022-12-07T12:26:25;100758.47;;;-8.39;65.81
43394;BME280;62479;62.642;17.954;2022-12-07T12:28:57;100764.24;;;-8.63;65.99
43394;BME280;62479;62.642;17.954;2022-12-07T12:31:38;100761.11;;;-8.96;66.65
43394;BME280;62479;62.642;17.954;2022-12-07T12:34:40;100762.00;;;-9.01;67.49
43394;BME280;62479;62.642;17.954;2022-12-07T12:37:42;100755.38;;;-9.06;68.06
43394;BME280;62479;62.642;17.954;2022-12-07T12:40:49;100754.11;;;-9.15;68.27
43394;BME280;62479;62.642;17.954;2022-12-07T12:43:51;100752.71;;;-9.15;68.57
43394;BME280;62479;62.642;17.954;2022-12-07T12:46:53;100755.88;;;-9.21;68.67
43394;BME280;62479;62.642;17.954;2022-12-07T12:49:40;100759.13;;;-9.11;68.69
43394;BME280;62479;62.642;17.954;2022-12-07T12:52:50;100757.61;;;-9.20;68.77
43394;BME280;62479;62.642;17.954;2022-12-07T12:55:45;100756.53;;;-9.25;69.06
43394;BME280;62479;62.642;17.954;2022-12-07T12:58:36;100759.94;;;-9.29;69.21
43394;BME280;62479;62.642;17.954;2022-12-07T13:05:44;100760.16;;;-9.00;70.01
43394;BME280;62479;62.642;17.954;2022-12-07T13:25:11;100753.21;;;-9.12;68.86
43394;BME280;62479;62.642;17.954;2022-12-07T13:27:44;100753.15;;;-9.09;68.97
43394;BME280;62479;62.642;17.954;2022-12-07T13:30:18;100753.97;;;-9.12;68.97
43394;BME280;62479;62.642;17.954;2022-12-07T13:32:52;100754.29;;;-9.20;69.08
43394;BME280;62479;62.642;17.954;2022-12-07T13:35:30;100755.43;;;-9.17;69.56
43394;BME280;62479;62.642;17.954;2022-12-07T13:37:59;100758.50;;;-9.19;70.10
43394;BME280;62479;62.642;17.954;2022-12-07T13:40:28;100761.85;;;-9.26;70.08
